Time;durP1;ratioP1;P1;durP2;ratioP2;P2;SDS_P1;SDS_P2;PMS_P1;PMS_P2;Temp;Humidity;BMP_temperature;BMP_pressure;BME280_temperature;BME280_humidity;BME280_pressure;Samples;Min_cycle;Max_cycle;Signal;HPM_P1;HPM_P2
2021/04/28 00:00:25;;;;;;;2.27;1.33;;;;;;;-143.37;100.00;65745.06;5137026;27;20216;-74
2021/04/28 00:02:52;;;;;;;2.50;1.50;;;;;;;-143.37;100.00;65745.06;5125395;27;20292;-75
2021/04/28 00:05:19;;;;;;;3.73;1.97;;;;;;;-143.37;100.00;65745.06;5133897;27;20472;-75
2021/04/28 00:07:45;;;;;;;3.77;1.50;;;;;;;-143.37;100.00;65745.06;5116172;27;20207;-76
2021/04/28 00:10:14;;;;;;;1.57;1.33;;;;;;;-143.37;100.00;65745.06;5134198;27;20215;-76
2021/04/28 00:12:40;;;;;;;2.57;1.80;;;;;;;-143.37;100.00;65745.06;5133273;27;20199;-76
2021/04/28 00:15:09;;;;;;;3.70;1.27;;;;;;;-143.37;100.00;65745.06;5115848;27;20225;-76
2021/04/28 00:17:35;;;;;;;1.63;1.23;;;;;;;-143.37;100.00;65745.06;5133985;27;20744;-76
2021/04/28 00:20:06;;;;;;;1.93;1.60;;;;;;;-143.37;100.00;65745.06;5134096;27;20286;-76
2021/04/28 00:22:32;;;;;;;3.47;2.00;;;;;;;-143.37;100.00;65745.06;5133986;27;20203;-76
2021/04/28 00:24:59;;;;;;;1.60;1.40;;;;;;;-143.37;100.00;65745.06;5133559;27;20235;-75
2021/04/28 00:27:25;;;;;;;2.90;1.07;;;;;;;-143.37;100.00;65745.06;5134172;27;20242;-74
2021/04/28 00:30:00;;;;;;;3.20;1.53;;;;;;;-143.37;100.00;65745.06;5117071;27;20622;-75
2021/04/28 00:32:26;;;;;;;2.63;1.73;;;;;;;-143.37;100.00;65745.06;5098523;27;20679;-74
2021/04/28 00:34:52;;;;;;;1.80;1.43;;;;;;;-143.37;100.00;65745.06;5133769;27;20678;-75
2021/04/28 00:37:18;;;;;;;1.80;1.27;;;;;;;-143.37;100.00;65745.06;5133830;27;20329;-75
2021/04/28 00:39:44;;;;;;;1.80;1.40;;;;;;;-143.37;100.00;65745.06;5099034;27;20271;-75
2021/04/28 00:42:10;;;;;;;4.57;1.90;;;;;;;-143.37;100.00;65745.06;5115485;27;20217;-75
2021/04/28 00:44:37;;;;;;;2.97;1.73;;;;;;;-143.37;100.00;65745.06;5098267;27;20218;-75
2021/04/28 00:47:04;;;;;;;3.20;1.73;;;;;;;-143.37;100.00;65745.06;5115532;27;20256;-75
2021/04/28 00:49:30;;;;;;;2.57;1.90;;;;;;;-143.37;100.00;65745.06;5123765;27;20723;-74
2021/04/28 00:51:57;;;;;;;1.40;1.10;;;;;;;-143.37;100.00;65745.06;5154037;27;20241;-74
2021/04/28 00:54:23;;;;;;;2.00;1.17;;;;;;;-143.37;100.00;65745.06;5118736;27;20194;-74
2021/04/28 00:56:53;;;;;;;2.50;1.53;;;;;;;-143.37;100.00;65745.06;5154018;27;20309;-75
2021/04/28 01:34:06;;;;;;;2.00;1.50;;;;;;;;;;5109920;27;20519;-74
2021/04/28 01:36:33;;;;;;;2.43;1.10;;;;;;;;;;5108261;28;20220;-74
2021/04/28 01:39:02;;;;;;;2.40;1.70;;;;;;;;;;5109717;28;20584;-74
2021/04/28 01:41:28;;;;;;;2.97;1.93;;;;;;;;;;5109688;28;20204;-73
2021/04/28 01:43:55;;;;;;;1.63;1.37;;;;;;;;;;5108221;28;20206;-75
2021/04/28 01:46:24;;;;;;;4.13;2.17;;;;;;;;;;5108222;28;20248;-75
2021/04/28 01:48:50;;;;;;;3.03;1.77;;;;;;;;;;5112699;28;20296;-74
2021/04/28 01:51:16;;;;;;;1.50;1.33;;;;;;;;;;5130303;28;20206;-75
2021/04/28 01:53:43;;;;;;;2.23;1.50;;;;;;;;;;5129956;27;20322;-76
2021/04/28 01:56:10;;;;;;;1.90;1.27;;;;;;;;;;5129688;27;20246;-75
2021/04/28 01:58:37;;;;;;;2.83;1.50;;;;;;;;;;5128617;27;20195;-76
2021/04/28 02:01:04;;;;;;;1.20;1.10;;;;;;;;;;5128792;28;20195;-76
2021/04/28 02:03:30;;;;;;;2.10;1.90;;;;;;;;;;5112778;27;20287;-76
2021/04/28 02:05:59;;;;;;;2.47;1.70;;;;;;;;;;5107725;28;20220;-76
2021/04/28 02:08:25;;;;;;;1.87;1.17;;;;;;;;;;5107897;28;20290;-76
2021/04/28 02:10:51;;;;;;;0.97;0.93;;;;;;;;;;5108965;28;20615;-76
2021/04/28 02:13:18;;;;;;;1.47;0.93;;;;;;;;;;5109370;28;20280;-76
2021/04/28 02:15:45;;;;;;;3.73;2.03;;;;;;;;;;5108791;28;20303;-76
2021/04/28 02:18:13;;;;;;;5.90;1.67;;;;;;;;;;5109109;28;20200;-76
2021/04/28 02:20:39;;;;;;;3.43;1.63;;;;;;;;;;5108796;28;20204;-76
2021/04/28 02:23:05;;;;;;;1.87;1.33;;;;;;;;;;5107685;28;20215;-76
2021/04/28 02:25:32;;;;;;;2.07;1.50;;;;;;;;;;5108305;28;20311;-77
2021/04/28 02:27:58;;;;;;;3.83;1.97;;;;;;;;;;5108890;28;20625;-76
2021/04/28 02:30:26;;;;;;;5.20;2.00;;;;;;;;;;5108839;28;20211;-76
2021/04/28 02:32:53;;;;;;;2.13;1.83;;;;;;;;;;5108523;28;20314;-76
2021/04/28 02:35:20;;;;;;;2.40;1.77;;;;;;;;;;5108444;28;20220;-75
2021/04/28 02:37:48;;;;;;;1.63;1.53;;;;;;;;;;5108465;28;20288;-75
2021/04/28 02:40:15;;;;;;;1.97;1.50;;;;;;;;;;5108408;28;20203;-75
2021/04/28 02:42:45;;;;;;;1.90;1.57;;;;;;;;;;5101223;28;20284;-75
2021/04/28 02:45:14;;;;;;;2.17;1.97;;;;;;;;;;5058207;28;20271;-75
2021/04/28 02:47:40;;;;;;;2.87;1.67;;;;;;;;;;5073366;28;20344;-76
2021/04/28 02:50:07;;;;;;;3.33;1.80;;;;;;;;;;5101122;28;20203;-75
2021/04/28 02:52:34;;;;;;;3.13;1.83;;;;;;;;;;5114850;28;20776;-75
2021/04/28 02:55:00;;;;;;;1.67;1.50;;;;;;;;;;5114966;28;20228;-75
2021/04/28 02:57:26;;;;;;;2.53;1.90;;;;;;;;;;5115122;28;20589;-75
2021/04/28 02:59:53;;;;;;;2.50;1.27;;;;;;;;;;5113962;28;20282;-75
2021/04/28 03:02:19;;;;;;;3.07;1.23;;;;;;;;;;5106874;28;20588;-75
2021/04/28 03:04:46;;;;;;;2.53;1.40;;;;;;;;;;5094340;28;20262;-75
2021/04/28 03:07:12;;;;;;;1.93;1.40;;;;;;;;;;5094788;28;20732;-75
2021/04/28 03:09:42;;;;;;;2.03;1.50;;;;;;;;;;5097476;28;20264;-75
2021/04/28 03:12:09;;;;;;;2.07;1.37;;;;;;;;;;5095288;28;20324;-75
2021/04/28 03:14:34;;;;;;;2.57;1.57;;;;;;;;;;5093132;28;20284;-75
2021/04/28 03:17:01;;;;;;;1.83;1.60;;;;;;;;;;5094110;28;20643;-75
2021/04/28 03:19:28;;;;;;;0.90;0.90;;;;;;;;;;5094522;28;20200;-75
2021/04/28 03:21:54;;;;;;;2.40;1.63;;;;;;;;;;5094140;28;20623;-75
2021/04/28 03:24:21;;;;;;;1.10;1.00;;;;;;;;;;5094128;28;20204;-75
2021/04/28 03:26:50;;;;;;;8.60;2.10;;;;;;;;;;5094042;28;20224;-76
2021/04/28 03:29:16;;;;;;;2.40;1.63;;;;;;;;;;5093997;28;20270;-75
2021/04/28 03:31:42;;;;;;;1.53;1.37;;;;;;;;;;5092570;28;20236;-75
2021/04/28 03:34:08;;;;;;;3.00;2.30;;;;;;;;;;5093731;28;20290;-75
2021/04/28 03:36:34;;;;;;;3.53;1.70;;;;;;;;;;5093424;28;20224;-75
2021/04/28 03:39:00;;;;;;;4.43;2.27;;;;;;;;;;5092700;28;20211;-73
2021/04/28 03:41:28;;;;;;;3.27;1.93;;;;;;;;;;5075681;28;20200;-73
2021/04/28 03:43:54;;;;;;;3.93;2.13;;;;;;;;;;5074981;28;20240;-73
2021/04/28 03:46:20;;;;;;;2.60;1.60;;;;;;;;;;5073139;28;20264;-73
2021/04/28 03:48:47;;;;;;;3.20;2.13;;;;;;;;;;5077609;28;20212;-75
2021/04/28 03:51:13;;;;;;;1.60;1.40;;;;;;;;;;5112830;28;20316;-73
2021/04/28 03:53:39;;;;;;;1.50;1.40;;;;;;;;;;5115297;28;20259;-74
2021/04/28 03:56:05;;;;;;;4.27;2.23;;;;;;;;;;5118653;27;20228;-74
2021/04/28 03:58:31;;;;;;;12.23;1.57;;;;;;;;;;5097665;28;20238;-74
2021/04/28 04:00:57;;;;;;;1.70;1.33;;;;;;;;;;5112833;28;20204;-73
2021/04/28 04:03:22;;;;;;;2.70;1.80;;;;;;;;;;5098446;28;20269;-74
2021/04/28 04:05:50;;;;;;;1.77;1.40;;;;;;;;;;5092048;28;20228;-75
2021/04/28 04:08:16;;;;;;;2.57;1.90;;;;;;;;;;5093755;28;20244;-75
2021/04/28 04:10:42;;;;;;;2.63;1.90;;;;;;;;;;5092102;28;20283;-75
2021/04/28 04:13:08;;;;;;;3.27;2.00;;;;;;;;;;5092033;28;20734;-75
2021/04/28 04:15:34;;;;;;;3.40;2.03;;;;;;;;;;5092631;28;20334;-76
2021/04/28 04:18:00;;;;;;;3.03;2.03;;;;;;;;;;5091518;28;20200;-76
2021/04/28 04:20:26;;;;;;;1.63;1.23;;;;;;;;;;5093180;28;20204;-76
2021/04/28 04:22:56;;;;;;;3.60;1.97;;;;;;;;;;5092033;28;20210;-75
2021/04/28 04:25:22;;;;;;;2.73;1.10;;;;;;;;;;5092527;28;20834;-76
2021/04/28 04:27:48;;;;;;;3.73;2.07;;;;;;;;;;5092795;28;20298;-76
2021/04/28 04:30:14;;;;;;;1.60;1.30;;;;;;;;;;5091990;28;20204;-76
2021/04/28 04:32:40;;;;;;;1.60;1.43;;;;;;;;;;5092858;28;20319;-76
2021/04/28 04:35:06;;;;;;;2.57;1.67;;;;;;;;;;5091664;28;20585;-76
2021/04/28 04:37:32;;;;;;;2.47;1.73;;;;;;;;;;5092954;28;20632;-76
2021/04/28 04:39:58;;;;;;;2.67;2.20;;;;;;;;;;5092820;28;20661;-76
2021/04/28 04:42:24;;;;;;;5.17;2.50;;;;;;;;;;5087830;28;20197;-76
2021/04/28 04:44:50;;;;;;;2.80;1.77;;;;;;;;;;5072002;28;20247;-75
2021/04/28 04:47:17;;;;;;;3.33;2.23;;;;;;;;;;5070817;28;20207;-76
2021/04/28 04:49:43;;;;;;;3.00;2.10;;;;;;;;;;5092178;28;20644;-76
2021/04/28 04:52:10;;;;;;;2.70;1.83;;;;;;;;;;5112650;28;20740;-76
2021/04/28 04:54:36;;;;;;;3.40;2.37;;;;;;;;;;5111022;28;20196;-76
2021/04/28 04:57:02;;;;;;;3.23;2.00;;;;;;;;;;5111435;28;20231;-76
2021/04/28 04:59:28;;;;;;;2.47;2.20;;;;;;;;;;5112530;28;20654;-77
2021/04/28 05:01:54;;;;;;;3.67;2.53;;;;;;;;;;5109147;28;20574;-76
2021/04/28 05:04:21;;;;;;;2.80;2.07;;;;;;;;;;5074539;28;20630;-76
2021/04/28 05:06:47;;;;;;;2.73;2.23;;;;;;;;;;5070432;28;20255;-76
2021/04/28 05:09:13;;;;;;;3.83;2.60;;;;;;;;;;5072188;28;20292;-76
2021/04/28 05:11:39;;;;;;;4.40;2.77;;;;;;;;;;5071974;28;20342;-76
2021/04/28 05:14:05;;;;;;;6.30;2.97;;;;;;;;;;5072276;28;20232;-75
2021/04/28 05:16:34;;;;;;;3.30;2.67;;;;;;;;;;5070333;28;20227;-75
2021/04/28 05:19:00;;;;;;;3.42;2.45;;;;;;;;;;5070541;28;20691;-76
2021/04/28 05:21:26;;;;;;;5.65;3.13;;;;;;;;;;5071853;28;20237;-76
2021/04/28 05:23:52;;;;;;;4.80;2.17;;;;;;;;;;5070359;28;20228;-75
2021/04/28 05:26:18;;;;;;;8.32;3.05;;;;;;;;;;5072106;28;20774;-75
2021/04/28 05:28:44;;;;;;;5.07;2.70;;;;;;;;;;5079025;28;20197;-76
2021/04/28 05:31:10;;;;;;;3.35;2.55;;;;;;;;;;5080504;28;20220;-75
2021/04/28 05:33:36;;;;;;;6.28;3.30;;;;;;;;;;5088573;28;20287;-75
2021/04/28 05:36:03;;;;;;;4.80;2.80;;;;;;;;;;5090407;28;20229;-74
2021/04/28 05:38:29;;;;;;;3.20;2.85;;;;;;;;;;5091847;28;20303;-74
2021/04/28 05:40:55;;;;;;;3.92;2.83;;;;;;;;;;5090380;28;20204;-75
2021/04/28 05:43:21;;;;;;;3.97;2.63;;;;;;;;;;5077956;28;20217;-75
2021/04/28 05:45:47;;;;;;;4.78;2.90;;;;;;;;;;5083665;28;20224;-76
2021/04/28 05:48:14;;;;;;;4.65;3.00;;;;;;;;;;5089327;28;20207;-75
2021/04/28 05:50:41;;;;;;;3.97;2.80;;;;;;;;;;5088363;28;20291;-75
2021/04/28 05:53:07;;;;;;;3.63;2.78;;;;;;;;;;5089445;28;20232;-75
2021/04/28 05:55:34;;;;;;;3.30;2.67;;;;;;;;;;5089280;28;20252;-75
2021/04/28 05:58:00;;;;;;;2.90;2.47;;;;;;;;;;5089204;28;20204;-75
2021/04/28 06:00:26;;;;;;;3.75;2.95;;;;;;;;;;5082959;28;20298;-75
2021/04/28 06:02:52;;;;;;;4.85;3.42;;;;;;;;;;5084301;28;20316;-74
2021/04/28 06:05:18;;;;;;;3.90;2.95;;;;;;;;;;5086895;28;20323;-75
2021/04/28 06:07:44;;;;;;;3.13;2.40;;;;;;;;;;5085304;28;20746;-74
2021/04/28 06:10:11;;;;;;;3.03;2.35;;;;;;;;;;5086717;28;20205;-74
2021/04/28 06:12:37;;;;;;;3.45;2.55;;;;;;;;;;5087615;28;20228;-74
2021/04/28 06:15:03;;;;;;;5.35;2.75;;;;;;;;;;5088811;28;20956;-74
2021/04/28 06:17:29;;;;;;;4.88;2.70;;;;;;;;;;5087672;28;20228;-73
2021/04/28 06:19:55;;;;;;;4.10;3.25;;;;;;;;;;5082413;28;20216;-74
2021/04/28 06:22:21;;;;;;;4.40;3.30;;;;;;;;;;5092662;28;20575;-73
2021/04/28 06:24:48;;;;;;;4.30;3.25;;;;;;;;;;5092799;28;20197;-73
2021/04/28 06:27:14;;;;;;;4.68;3.20;;;;;;;;;;5092924;28;20228;-74
2021/04/28 06:29:43;;;;;;;3.08;2.55;;;;;;;;;;5092869;28;20205;-74
2021/04/28 06:32:09;;;;;;;3.97;2.97;;;;;;;;;;5091625;28;20835;-75
2021/04/28 06:34:35;;;;;;;5.00;2.65;;;;;;;;;;5092961;28;20729;-75
2021/04/28 06:37:01;;;;;;;5.03;3.28;;;;;;;;;;5091564;28;20273;-74
2021/04/28 06:39:27;;;;;;;3.40;2.60;;;;;;;;;;5091594;28;20279;-74
2021/04/28 06:41:53;;;;;;;3.45;2.63;;;;;;;;;;5091436;28;20205;-74
2021/04/28 06:44:19;;;;;;;5.68;3.00;;;;;;;;;;5092636;28;20297;-74
2021/04/28 06:46:45;;;;;;;4.05;2.92;;;;;;;;;;5091528;28;20876;-75
2021/04/28 06:49:11;;;;;;;3.85;3.00;;;;;;;;;;5097083;28;20207;-75
2021/04/28 06:51:37;;;;;;;3.72;3.05;;;;;;;;;;5111928;28;20203;-75
2021/04/28 06:54:03;;;;;;;5.15;3.22;;;;;;;;;;5099127;28;20623;-75
2021/04/28 06:56:30;;;;;;;3.58;2.80;;;;;;;;;;5090666;28;20320;-74
2021/04/28 06:58:56;;;;;;;3.10;2.45;;;;;;;;;;5084306;28;20263;-75
2021/04/28 07:01:22;;;;;;;3.50;2.38;;;;;;;;;;5070841;28;20625;-75
2021/04/28 07:03:48;;;;;;;3.42;2.67;;;;;;;;;;5078359;28;20312;-75
2021/04/28 07:06:15;;;;;;;4.85;2.65;;;;;;;;;;5071844;28;20221;-74
2021/04/28 07:08:41;;;;;;;4.32;2.92;;;;;;;;;;5071513;28;20644;-75
2021/04/28 07:11:07;;;;;;;4.03;2.35;;;;;;;;;;5071835;28;20212;-75
2021/04/28 07:13:33;;;;;;;3.40;2.30;;;;;;;;;;5071018;28;20248;-76
2021/04/28 07:15:59;;;;;;;10.48;2.38;;;;;;;;;;5071657;28;20291;-75
2021/04/28 07:18:26;;;;;;;2.50;2.08;;;;;;;;;;5072074;28;20204;-74
2021/04/28 07:20:52;;;;;;;3.90;2.75;;;;;;;;;;5071627;28;20209;-74
2021/04/28 07:23:18;;;;;;;2.90;2.35;;;;;;;;;;5070463;28;20228;-74
2021/04/28 07:25:44;;;;;;;3.45;2.70;;;;;;;;;;5071463;28;20229;-75
2021/04/28 07:28:10;;;;;;;3.30;2.65;;;;;;;;;;5071737;28;20806;-74
2021/04/28 07:30:36;;;;;;;2.83;2.50;;;;;;;;;;5090232;28;20745;-75
2021/04/28 07:33:03;;;;;;;4.43;2.05;;;;;;;;;;5090219;28;20743;-75
2021/04/28 07:35:29;;;;;;;3.50;2.00;;;;;;;;;;5091277;28;20233;-74
2021/04/28 07:37:55;;;;;;;2.40;2.10;;;;;;;;;;5091451;28;20261;-74
2021/04/28 07:40:22;;;;;;;3.10;2.28;;;;;;;;;;5090781;28;20208;-74
2021/04/28 07:42:49;;;;;;;4.38;2.50;;;;;;;;;;5089630;28;20306;-73
2021/04/28 07:45:16;;;;;;;2.95;2.00;;;;;;;;;;5091118;28;20278;-74
2021/04/28 07:47:42;;;;;;;3.25;2.30;;;;;;;;;;5089767;28;20620;-74
2021/04/28 07:50:14;;;;;;;2.35;1.88;;;;;;;;;;5105812;28;20700;-74
2021/04/28 07:52:40;;;;;;;1.65;1.55;;;;;;;;;;5110296;28;20212;-74
2021/04/28 07:55:06;;;;;;;1.95;1.77;;;;;;;;;;5109930;28;20631;-74
2021/04/28 07:57:32;;;;;;;2.92;1.70;;;;;;;;;;5111851;28;20252;-73
2021/04/28 07:59:58;;;;;;;1.70;1.60;;;;;;;;;;5111591;28;20295;-74
2021/04/28 08:02:24;;;;;;;1.55;1.38;;;;;;;;;;5096633;28;20292;-74
2021/04/28 08:04:50;;;;;;;1.92;1.65;;;;;;;;;;5070585;28;20205;-74
2021/04/28 08:07:16;;;;;;;2.30;1.70;;;;;;;;;;5069628;28;20289;-74
2021/04/28 08:09:45;;;;;;;2.17;1.98;;;;;;;;;;5070839;28;20209;-75
2021/04/28 08:12:11;;;;;;;1.70;1.60;;;;;;;;;;5080381;28;20236;-74
2021/04/28 08:14:37;;;;;;;2.30;1.65;;;;;;;;;;5089222;28;20612;-75
2021/04/28 08:17:03;;;;;;;2.38;1.55;;;;;;;;;;5089351;28;20232;-74
2021/04/28 08:19:29;;;;;;;2.67;2.08;;;;;;;;;;5089807;28;20208;-74
2021/04/28 08:21:56;;;;;;;3.97;2.47;;;;;;;;;;5090712;28;20208;-73
2021/04/28 08:24:23;;;;;;;2.92;2.08;;;;;;;;;;5090897;28;20224;-74
2021/04/28 08:26:49;;;;;;;4.38;2.33;;;;;;;;;;5089065;28;20216;-74
2021/04/28 08:29:15;;;;;;;5.00;1.63;;;;;;;;;;5090320;28;20231;-73
2021/04/28 08:31:41;;;;;;;2.22;1.73;;;;;;;;;;5089357;28;20299;-74
2021/04/28 08:34:07;;;;;;;2.35;1.88;;;;;;;;;;5089447;28;20208;-74
2021/04/28 08:36:33;;;;;;;3.90;2.13;;;;;;;;;;5088876;28;20263;-74
2021/04/28 08:39:00;;;;;;;3.03;1.77;;;;;;;;;;5090813;28;20239;-74
2021/04/28 08:41:26;;;;;;;1.83;1.65;;;;;;;;;;5088532;28;20640;-73
2021/04/28 08:43:53;;;;;;;3.45;2.50;;;;;;;;;;5090015;28;20732;-74
2021/04/28 08:46:19;;;;;;;1.45;1.35;;;;;;;;;;5088711;28;20225;-74
2021/04/28 08:48:45;;;;;;;2.08;1.40;;;;;;;;;;5092133;28;20204;-74
2021/04/28 08:51:11;;;;;;;2.25;1.77;;;;;;;;;;5110440;28;20253;-74
2021/04/28 08:53:38;;;;;;;2.13;1.60;;;;;;;;;;5110192;28;20743;-73
2021/04/28 08:56:04;;;;;;;1.88;1.63;;;;;;;;;;5108731;28;20263;-74
2021/04/28 08:58:30;;;;;;;2.60;1.60;;;;;;;;;;5110485;28;20208;-74
2021/04/28 09:00:56;;;;;;;3.20;1.45;;;;;;;;;;5109210;28;20219;-74
2021/04/28 09:03:35;;;;;;;2.38;1.50;;;;;;;;;;5094613;27;20281;-74
2021/04/28 09:06:01;;;;;;;2.58;1.20;;;;;;;;;;5090138;28;20220;-74
2021/04/28 09:08:27;;;;;;;1.27;1.15;;;;;;;;;;5090266;28;20731;-74
2021/04/28 09:10:53;;;;;;;1.73;1.35;;;;;;;;;;5090035;28;20285;-73
2021/04/28 09:13:19;;;;;;;3.53;1.65;;;;;;;;;;5089887;28;20705;-73
2021/04/28 09:15:46;;;;;;;2.47;1.40;;;;;;;;;;5089467;28;20225;-74
2021/04/28 09:18:14;;;;;;;1.30;1.20;;;;;;;;;;5088464;28;20208;-74
2021/04/28 09:20:47;;;;;;;1.20;1.10;;;;;;;;;;5088591;28;20239;-74
2021/04/28 09:23:17;;;;;;;1.95;1.50;;;;;;;;;;5089904;28;20230;-75
2021/04/28 09:25:48;;;;;;;1.42;1.30;;;;;;;;;;5089217;28;20787;-74
2021/04/28 09:28:19;;;;;;;1.83;1.52;;;;;;;;;;5088398;28;20288;-72
2021/04/28 09:30:45;;;;;;;1.38;1.13;;;;;;;;;;5089328;28;20207;-73
2021/04/28 09:33:11;;;;;;;1.73;1.30;;;;;;;;;;5088320;28;20211;-75
2021/04/28 09:35:37;;;;;;;1.45;1.35;;;;;;;;;;5089316;28;20787;-75
2021/04/28 09:38:04;;;;;;;1.58;1.38;;;;;;;;;;5088364;28;20216;-75
2021/04/28 09:40:42;;;;;;;1.35;1.13;;;;;;;;;;5088533;28;20609;-75
2021/04/28 09:43:09;;;;;;;2.78;1.50;;;;;;;;;;5089202;28;20224;-75
2021/04/28 09:45:42;;;;;;;3.33;1.15;;;;;;;;;;5089489;28;20347;-74
2021/04/28 09:48:18;;;;;;;1.20;1.10;;;;;;;;;;5089553;28;20291;-74
2021/04/28 09:50:44;;;;;;;1.83;1.20;;;;;;;;;;5108425;28;20633;-75
2021/04/28 09:53:23;;;;;;;1.40;1.30;;;;;;;;;;5108713;28;20715;-73
2021/04/28 09:55:49;;;;;;;2.25;1.45;;;;;;;;;;5112320;28;20305;-74
2021/04/28 09:58:15;;;;;;;1.48;1.25;;;;;;;;;;5113646;28;20731;-75
2021/04/28 10:00:41;;;;;;;2.67;1.60;;;;;;;;;;5112478;28;20261;-75
2021/04/28 10:03:11;;;;;;;2.00;1.23;;;;;;;;;;5098391;28;20251;-75
2021/04/28 10:05:40;;;;;;;1.88;1.40;;;;;;;;;;5093079;28;20223;-74
2021/04/28 10:08:13;;;;;;;1.92;1.48;;;;;;;;;;5093064;28;20273;-75
2021/04/28 10:10:40;;;;;;;2.28;1.55;;;;;;;;;;5092864;28;20201;-76
2021/04/28 10:13:09;;;;;;;1.80;1.42;;;;;;;;;;5093192;28;20244;-75
2021/04/28 10:15:36;;;;;;;1.55;1.27;;;;;;;;;;5091494;28;20972;-76
2021/04/28 10:18:03;;;;;;;1.85;1.52;;;;;;;;;;5092981;28;20283;-75
2021/04/28 10:20:33;;;;;;;1.65;1.38;;;;;;;;;;5095490;28;20204;-78
2021/04/28 10:23:07;;;;;;;5.10;1.15;;;;;;;;;;5092716;28;20250;-77
2021/04/28 10:25:33;;;;;;;2.33;1.42;;;;;;;;;;5076857;28;20701;-78
2021/04/28 10:28:01;;;;;;;12.35;1.88;;;;;;;;;;5078964;28;20553;-77
2021/04/28 10:30:27;;;;;;;2.63;1.65;;;;;;;;;;5089774;28;20197;-78
2021/04/28 10:32:54;;;;;;;1.33;1.10;;;;;;;;;;5072749;28;20663;-75
2021/04/28 10:35:22;;;;;;;2.28;1.65;;;;;;;;;;5073586;28;20229;-74
2021/04/28 10:37:50;;;;;;;2.10;1.45;;;;;;;;;;5073941;28;20194;-75
2021/04/28 10:40:17;;;;;;;2.58;1.88;;;;;;;;;;5074516;28;20235;-75
2021/04/28 10:42:43;;;;;;;3.58;1.60;;;;;;;;;;5092378;28;20189;-75
2021/04/28 10:45:18;;;;;;;2.50;1.90;;;;;;;;;;5092183;28;20224;-76
2021/04/28 10:47:44;;;;;;;3.58;2.20;;;;;;;;;;5089605;28;20207;-73
2021/04/28 10:50:22;;;;;;;1.48;1.10;;;;;;;;;;5099772;28;20251;-73
2021/04/28 10:53:01;;;;;;;2.78;1.70;;;;;;;;;;5102179;28;20283;-74
2021/04/28 10:55:42;;;;;;;1.75;1.20;;;;;;;;;;5099321;28;20224;-75
2021/04/28 10:58:35;;;;;;;1.48;1.13;;;;;;;;;;5083057;28;20207;-75
2021/04/28 11:01:02;;;;;;;2.72;1.60;;;;;;;;;;5100823;28;20236;-74
2021/04/28 11:03:29;;;;;;;2.60;1.35;;;;;;;;;;5099182;28;20223;-74
2021/04/28 11:05:58;;;;;;;1.95;1.58;;;;;;;;;;5101354;28;20280;-74
2021/04/28 11:08:30;;;;;;;2.10;1.55;;;;;;;;;;5100168;28;20208;-75
2021/04/28 11:10:56;;;;;;;3.13;2.20;;;;;;;;;;5100767;28;20287;-75
2021/04/28 11:13:24;;;;;;;2.60;2.22;;;;;;;;;;5102519;28;20215;-74
2021/04/28 11:15:54;;;;;;;2.72;1.52;;;;;;;;;;5081939;28;20284;-75
2021/04/28 11:18:26;;;;;;;2.60;1.75;;;;;;;;;;5097771;28;20728;-76
2021/04/28 11:21:11;;;;;;;2.83;1.80;;;;;;;;;;5100382;28;20247;-75
2021/04/28 11:23:38;;;;;;;1.70;1.33;;;;;;;;;;5100525;28;20262;-76
2021/04/28 11:26:22;;;;;;;2.30;1.50;;;;;;;;;;5099290;28;20259;-75
2021/04/28 11:28:49;;;;;;;1.42;1.23;;;;;;;;;;5099178;28;20641;-75
2021/04/28 11:31:34;;;;;;;3.47;1.80;;;;;;;;;;5090723;27;20208;-75
2021/04/28 11:34:01;;;;;;;1.10;1.00;;;;;;;;;;5089331;28;20269;-75
2021/04/28 11:36:26;;;;;;;1.83;1.40;;;;;;;;;;5072036;28;20331;-74
2021/04/28 11:38:52;;;;;;;1.30;1.15;;;;;;;;;;5090852;28;20197;-74
2021/04/28 11:41:22;;;;;;;2.20;1.42;;;;;;;;;;5089703;28;20622;-75
2021/04/28 11:43:50;;;;;;;2.22;1.65;;;;;;;;;;5089592;28;20345;-75
2021/04/28 11:46:29;;;;;;;2.58;1.45;;;;;;;;;;5089484;28;20224;-75
2021/04/28 11:48:56;;;;;;;2.08;1.38;;;;;;;;;;5090196;28;20199;-76
2021/04/28 11:51:27;;;;;;;1.58;1.20;;;;;;;;;;5088997;28;20203;-75
2021/04/28 11:53:54;;;;;;;1.58;1.13;;;;;;;;;;5090520;28;20204;-75
2021/04/28 11:56:38;;;;;;;1.52;1.23;;;;;;;;;;5089621;28;20221;-75
2021/04/28 11:59:06;;;;;;;1.70;1.40;;;;;;;;;;5089989;28;20204;-75
2021/04/28 12:01:36;;;;;;;1.90;1.10;;;;;;;;;;5089500;28;20208;-75
2021/04/28 12:04:05;;;;;;;2.13;1.40;;;;;;;;;;5088389;28;20232;-76
2021/04/28 12:06:33;;;;;;;1.38;1.20;;;;;;;;;;5088289;28;20282;-76
2021/04/28 12:09:18;;;;;;;2.28;1.35;;;;;;;;;;5090060;28;20583;-74
2021/04/28 12:11:46;;;;;;;2.42;1.67;;;;;;;;;;5090305;28;20288;-75
2021/04/28 12:14:12;;;;;;;4.10;1.98;;;;;;;;;;5090308;28;20228;-74
2021/04/28 12:16:39;;;;;;;2.40;1.73;;;;;;;;;;5087307;28;20252;-76
2021/04/28 12:19:07;;;;;;;3.15;1.75;;;;;;;;;;5088059;28;20204;-76
2021/04/28 12:21:33;;;;;;;2.53;1.50;;;;;;;;;;5087800;28;20881;-74
2021/04/28 12:23:59;;;;;;;3.08;1.80;;;;;;;;;;5090100;28;20220;-75
2021/04/28 12:26:25;;;;;;;1.90;1.50;;;;;;;;;;5090848;28;20248;-75
2021/04/28 12:28:51;;;;;;;2.97;1.75;;;;;;;;;;5091257;28;20232;-75
2021/04/28 12:31:37;;;;;;;2.10;1.40;;;;;;;;;;5090602;28;20303;-75
2021/04/28 12:34:03;;;;;;;1.92;1.45;;;;;;;;;;5088142;28;20307;-75
2021/04/28 12:36:29;;;;;;;2.40;1.77;;;;;;;;;;5073080;28;20586;-76
2021/04/28 12:38:55;;;;;;;2.90;1.50;;;;;;;;;;5077491;28;20197;-74
2021/04/28 12:41:21;;;;;;;1.90;1.33;;;;;;;;;;5089663;28;20291;-76
2021/04/28 12:43:48;;;;;;;2.03;1.48;;;;;;;;;;5089503;28;20687;-76
2021/04/28 12:46:16;;;;;;;2.65;1.70;;;;;;;;;;5090843;28;20331;-75
2021/04/28 12:49:00;;;;;;;2.30;1.50;;;;;;;;;;5094580;28;20253;-75
2021/04/28 12:51:27;;;;;;;2.75;1.70;;;;;;;;;;5110629;28;20200;-74
2021/04/28 12:53:54;;;;;;;3.60;2.17;;;;;;;;;;5108136;28;20605;-75
2021/04/28 12:56:20;;;;;;;3.60;1.42;;;;;;;;;;5107771;28;20307;-75
2021/04/28 12:58:47;;;;;;;2.38;1.50;;;;;;;;;;5102486;28;20811;-75
2021/04/28 13:01:20;;;;;;;3.30;1.73;;;;;;;;;;5088506;28;20209;-75
2021/04/28 13:03:46;;;;;;;9.48;1.70;;;;;;;;;;5089886;28;20349;-75
2021/04/28 13:06:22;;;;;;;5.72;2.45;;;;;;;;;;5089387;28;20757;-76
2021/04/28 13:08:49;;;;;;;2.35;1.67;;;;;;;;;;5088923;28;20433;-75
2021/04/28 13:11:19;;;;;;;3.25;2.22;;;;;;;;;;5088902;28;20480;-76
2021/04/28 13:13:54;;;;;;;2.92;1.73;;;;;;;;;;5087374;28;20805;-76
2021/04/28 13:16:36;;;;;;;3.88;1.98;;;;;;;;;;5087542;28;20227;-75
2021/04/28 13:19:14;;;;;;;3.65;2.17;;;;;;;;;;5089890;28;20231;-74
2021/04/28 13:21:40;;;;;;;3.83;2.03;;;;;;;;;;5088923;28;20262;-76
2021/04/28 13:24:08;;;;;;;4.35;1.88;;;;;;;;;;5089241;28;20220;-73
2021/04/28 13:26:35;;;;;;;2.40;1.75;;;;;;;;;;5088544;28;20275;-75
2021/04/28 13:29:02;;;;;;;4.07;2.22;;;;;;;;;;5089770;28;20675;-75
2021/04/28 13:31:29;;;;;;;2.83;1.83;;;;;;;;;;5088224;28;20205;-76
2021/04/28 13:33:58;;;;;;;4.38;1.92;;;;;;;;;;5089491;28;20402;-74
2021/04/28 13:36:28;;;;;;;4.30;2.08;;;;;;;;;;5091209;28;20599;-74
2021/04/28 13:38:55;;;;;;;4.63;2.75;;;;;;;;;;5088265;28;20215;-75
2021/04/28 13:41:22;;;;;;;1.98;1.60;;;;;;;;;;5088899;28;20216;-75
2021/04/28 13:43:48;;;;;;;3.00;2.08;;;;;;;;;;5088039;28;20244;-75
2021/04/28 13:46:13;;;;;;;5.28;2.00;;;;;;;;;;5088997;28;20221;-75
2021/04/28 13:48:40;;;;;;;3.45;1.92;;;;;;;;;;5088489;28;20254;-75
2021/04/28 13:51:06;;;;;;;2.80;1.73;;;;;;;;;;5088073;28;20834;-74
2021/04/28 13:53:32;;;;;;;3.47;1.85;;;;;;;;;;5087213;28;20282;-75
2021/04/28 13:55:58;;;;;;;11.98;1.92;;;;;;;;;;5088097;28;20293;-75
2021/04/28 13:58:24;;;;;;;3.58;2.08;;;;;;;;;;5086627;28;20204;-75
2021/04/28 14:00:50;;;;;;;2.63;1.90;;;;;;;;;;5087858;28;20247;-75
2021/04/28 14:03:16;;;;;;;2.65;1.85;;;;;;;;;;5086590;28;20196;-75
2021/04/28 14:05:42;;;;;;;2.83;1.85;;;;;;;;;;5085769;28;20631;-76
2021/04/28 14:08:08;;;;;;;2.95;1.88;;;;;;;;;;5088294;28;20204;-74
2021/04/28 14:10:34;;;;;;;4.35;2.50;;;;;;;;;;5088034;28;20234;-75
2021/04/28 14:13:00;;;;;;;2.58;2.03;;;;;;;;;;5087761;28;20329;-75
2021/04/28 14:15:27;;;;;;;3.17;1.65;;;;;;;;;;5087847;28;20269;-76
2021/04/28 14:17:53;;;;;;;3.50;2.00;;;;;;;;;;5087808;28;20220;-75
2021/04/28 14:20:19;;;;;;;3.55;2.08;;;;;;;;;;5087383;28;20211;-75
2021/04/28 14:22:45;;;;;;;8.35;3.38;;;;;;;;;;5087060;28;20204;-75
2021/04/28 14:25:11;;;;;;;2.08;1.65;;;;;;;;;;5086849;28;20663;-76
2021/04/28 14:27:37;;;;;;;1.88;1.33;;;;;;;;;;5087423;28;20279;-74
2021/04/28 14:30:04;;;;;;;6.05;2.67;;;;;;;;;;5082482;28;20208;-75
2021/04/28 14:32:32;;;;;;;3.70;1.83;;;;;;;;;;5065126;28;20626;-75
2021/04/28 14:35:00;;;;;;;3.70;2.08;;;;;;;;;;5069475;28;20256;-74
2021/04/28 14:37:28;;;;;;;2.13;1.33;;;;;;;;;;5078287;28;20302;-75
2021/04/28 14:39:54;;;;;;;3.35;2.00;;;;;;;;;;5070424;28;20226;-75
2021/04/28 14:42:20;;;;;;;3.40;1.85;;;;;;;;;;5091947;28;20201;-75
2021/04/28 14:44:46;;;;;;;5.15;2.15;;;;;;;;;;5090520;28;20623;-75
2021/04/28 14:47:12;;;;;;;3.85;2.05;;;;;;;;;;5090732;28;20235;-75
2021/04/28 14:49:42;;;;;;;4.40;2.10;;;;;;;;;;5100862;28;20203;-75
2021/04/28 14:52:08;;;;;;;2.22;1.50;;;;;;;;;;5111237;28;20267;-73
2021/04/28 14:54:34;;;;;;;2.80;1.70;;;;;;;;;;5110926;28;20231;-75
2021/04/28 14:57:01;;;;;;;3.83;1.60;;;;;;;;;;5112081;28;20280;-74
2021/04/28 14:59:28;;;;;;;4.70;1.63;;;;;;;;;;5112040;28;20207;-74